createdAt,value
2019-03-09T00:01:55.340Z,17.15
2019-03-09T00:04:25.827Z,18.75
2019-03-09T00:06:57.478Z,19.42
2019-03-09T00:09:27.871Z,20.82
2019-03-09T00:11:59.376Z,20.48
2019-03-09T00:14:30.774Z,20.40
2019-03-09T00:17:01.157Z,19.57
2019-03-09T00:19:31.546Z,16.85
2019-03-09T00:22:03.205Z,17.77
2019-03-09T00:24:35.930Z,13.60
2019-03-09T00:27:13.919Z,12.70
2019-03-09T00:30:01.929Z,11.70
2019-03-09T00:32:33.860Z,10.72
2019-03-09T00:35:04.911Z,11.10
2019-03-09T00:37:35.294Z,12.43
2019-03-09T00:40:07.938Z,13.45
2019-03-09T00:42:42.064Z,14.25
2019-03-09T00:45:13.152Z,14.33
2019-03-09T00:47:43.536Z,16.00
2019-03-09T00:50:14.020Z,15.25
2019-03-09T00:52:45.038Z,15.00
2019-03-09T00:55:15.540Z,12.65
2019-03-09T00:57:46.282Z,12.15
2019-03-09T01:00:21.511Z,12.05
2019-03-09T01:02:52.675Z,12.23
2019-03-09T01:05:23.058Z,11.93
2019-03-09T01:07:53.607Z,10.30
2019-03-09T01:10:29.512Z,10.58
2019-03-09T01:15:30.296Z,8.98
2019-03-09T01:18:02.460Z,9.28
2019-03-09T01:20:36.039Z,8.85
2019-03-09T01:23:06.431Z,8.25
2019-03-09T01:25:37.011Z,8.43
2019-03-09T01:28:09.987Z,8.43
2019-03-09T01:30:40.661Z,9.40
2019-03-09T01:33:11.039Z,9.08
2019-03-09T01:35:42.949Z,9.25
2019-03-09T01:38:17.336Z,8.25
2019-03-09T01:40:47.738Z,9.35
2019-03-09T01:43:18.128Z,8.75
2019-03-09T01:45:50.602Z,8.78
2019-03-09T01:48:21.303Z,9.85
2019-03-09T01:50:51.947Z,11.70
2019-03-09T01:53:25.410Z,12.78
2019-03-09T01:55:55.800Z,11.22
2019-03-09T01:58:28.792Z,10.20
2019-03-09T02:00:59.346Z,9.43
2019-03-09T02:03:29.772Z,9.80
2019-03-09T02:06:01.430Z,8.50
2019-03-09T02:08:33.851Z,8.60
2019-03-09T02:11:05.863Z,8.65
2019-03-09T02:13:39.191Z,8.85
2019-03-09T02:16:10.831Z,7.62
2019-03-09T02:18:41.606Z,7.65
2019-03-09T02:21:15.951Z,8.40
2019-03-09T02:23:46.676Z,8.03
2019-03-09T02:26:20.207Z,7.83
2019-03-09T02:28:52.911Z,7.53
2019-03-09T02:31:24.417Z,7.92
2019-03-09T02:33:55.777Z,7.85
2019-03-09T02:36:36.471Z,8.95
2019-03-09T02:39:11.533Z,9.40
2019-03-09T02:41:42.077Z,8.33
2019-03-09T02:44:15.160Z,7.37
2019-03-09T02:46:52.550Z,8.25
2019-03-09T02:49:24.433Z,8.65
2019-03-09T02:51:56.023Z,7.83
2019-03-09T03:16:02.759Z,6.55
2019-03-09T03:18:34.168Z,7.72
2019-03-09T03:21:07.195Z,6.33
2019-03-09T03:23:38.531Z,7.33
2019-03-09T03:26:10.506Z,7.03
2019-03-09T03:28:41.976Z,7.40
2019-03-09T03:31:12.676Z,6.78
2019-03-09T03:33:43.660Z,6.65
2019-03-09T03:42:03.001Z,7.25
2019-03-09T03:44:36.682Z,6.80
2019-03-09T03:47:07.385Z,6.85
2019-03-09T03:49:38.136Z,6.90
2019-03-09T03:52:12.616Z,6.92
2019-03-09T03:54:43.180Z,7.03
2019-03-09T03:57:13.867Z,6.80
2019-03-09T03:59:44.630Z,6.42
2019-03-09T04:02:15.747Z,6.55
2019-03-09T04:04:46.139Z,6.50
2019-03-09T04:07:16.798Z,6.67
2019-03-09T04:09:47.683Z,6.75
2019-03-09T04:12:18.059Z,6.12
2019-03-09T04:14:49.135Z,5.55
2019-03-09T04:17:19.687Z,5.97
2019-03-09T04:19:50.374Z,6.40
2019-03-09T04:22:20.756Z,6.03
2019-03-09T04:24:52.456Z,6.12
2019-03-09T04:27:22.878Z,6.22
2019-03-09T04:29:57.570Z,6.47
2019-03-09T04:32:27.762Z,5.85
2019-03-09T04:34:59.301Z,5.60
2019-03-09T04:37:29.674Z,5.90
2019-03-09T04:40:00.348Z,5.42
2019-03-09T04:42:30.823Z,5.78
2019-03-09T04:45:01.202Z,5.65
2019-03-09T04:47:31.769Z,5.42
2019-03-09T04:50:02.146Z,5.50
2019-03-09T04:52:36.271Z,5.28
2019-03-09T04:55:08.506Z,5.47
2019-03-09T04:57:39.145Z,5.85
2019-03-09T05:00:12.672Z,5.47
2019-03-09T05:02:43.602Z,5.08
2019-03-09T05:05:14.289Z,4.60
2019-03-09T05:07:57.680Z,4.90
2019-03-09T05:10:36.487Z,5.17
2019-03-09T05:13:15.429Z,5.47
2019-03-09T05:15:45.902Z,5.33
2019-03-09T05:18:16.617Z,4.87
2019-03-09T05:20:47.423Z,4.35
2019-03-09T05:23:18.086Z,4.75
2019-03-09T05:25:49.476Z,5.00
2019-03-09T05:28:20.172Z,5.12
2019-03-09T05:30:50.878Z,4.97
2019-03-09T05:33:21.615Z,5.05
2019-03-09T05:35:52.505Z,4.92
2019-03-09T05:38:23.170Z,5.50
2019-03-09T05:40:54.563Z,6.00
2019-03-09T05:43:25.560Z,5.40
2019-03-09T05:45:57.230Z,5.67
2019-03-09T05:48:29.737Z,5.85
2019-03-09T05:51:03.640Z,5.70
2019-03-09T05:53:35.344Z,5.90
2019-03-09T05:56:07.675Z,5.85
2019-03-09T06:01:30.107Z,6.75
2019-03-09T06:04:01.101Z,6.12
2019-03-09T06:06:32.272Z,6.20
2019-03-09T06:09:02.656Z,6.45
2019-03-09T06:11:33.409Z,6.17
2019-03-09T06:14:03.818Z,6.62
2019-03-09T06:16:34.198Z,6.40
2019-03-09T06:19:04.744Z,5.83
2019-03-09T06:21:35.127Z,6.55
2019-03-09T06:24:10.155Z,5.95
2019-03-09T06:26:40.578Z,6.03
2019-03-09T06:29:11.146Z,5.55
2019-03-09T06:31:41.522Z,5.97
2019-03-09T06:34:13.710Z,6.62
2019-03-09T06:36:46.972Z,6.28
2019-03-09T06:39:18.158Z,6.30
2019-03-09T06:42:20.596Z,6.20
2019-03-09T06:44:56.523Z,6.35
2019-03-09T06:47:27.070Z,6.28
2019-03-09T06:49:57.459Z,6.40
2019-03-09T06:52:27.834Z,5.80
2019-03-09T06:54:58.402Z,6.40
2019-03-09T06:57:28.788Z,7.00
2019-03-09T07:00:00.642Z,6.50
2019-03-09T07:02:31.183Z,6.03
2019-03-09T07:05:01.884Z,6.60
2019-03-09T07:07:34.890Z,6.50
2019-03-09T07:10:05.842Z,6.50
2019-03-09T07:12:36.237Z,6.95
2019-03-09T07:15:21.687Z,7.08
2019-03-09T07:17:54.051Z,6.70
2019-03-09T07:20:24.441Z,7.50
2019-03-09T07:23:06.069Z,6.47
2019-03-09T07:25:37.659Z,6.42
2019-03-09T07:28:15.177Z,6.72
2019-03-09T07:30:45.588Z,6.45
2019-03-09T07:33:17.060Z,6.72
2019-03-09T07:35:52.310Z,6.72
2019-03-09T07:38:46.734Z,6.05
2019-03-09T07:41:17.943Z,6.50
2019-03-09T07:44:10.826Z,6.50
2019-03-09T07:46:41.237Z,6.72
2019-03-09T07:49:16.630Z,6.50
2019-03-09T07:51:49.765Z,6.50
2019-03-09T07:54:24.557Z,6.58
2019-03-09T07:56:55.117Z,6.87
2019-03-09T07:59:26.623Z,7.37
2019-03-09T08:01:57.344Z,6.40
2019-03-09T08:04:27.920Z,6.65
2019-03-09T08:06:58.663Z,7.03
2019-03-09T08:09:31.264Z,6.90
2019-03-09T08:12:01.839Z,6.65
2019-03-09T08:14:32.261Z,7.30
2019-03-09T08:17:03.348Z,7.35
2019-03-09T08:19:33.927Z,6.75
2019-03-09T08:22:04.324Z,6.72
2019-03-09T08:24:34.723Z,6.85
2019-03-09T08:27:05.278Z,7.33
2019-03-09T08:29:35.669Z,6.35
2019-03-09T08:32:06.058Z,6.42
2019-03-09T08:34:36.618Z,6.17
2019-03-09T08:37:06.998Z,6.83
2019-03-09T08:42:38.612Z,6.70
2019-03-09T08:48:27.337Z,6.78
2019-03-09T08:50:59.197Z,7.30
2019-03-09T08:53:31.308Z,7.03
2019-03-09T08:56:01.926Z,6.83
2019-03-09T08:58:32.602Z,6.30
2019-03-09T09:01:03.077Z,6.75
2019-03-09T09:03:33.894Z,6.92
2019-03-09T09:06:05.202Z,6.85
2019-03-09T09:08:36.020Z,6.87
2019-03-09T09:11:06.428Z,7.05
2019-03-09T09:13:39.638Z,6.65
2019-03-09T09:16:10.038Z,6.78
2019-03-09T09:18:41.861Z,7.42
2019-03-09T09:24:17.655Z,6.87
2019-03-09T09:26:47.693Z,7.03
2019-03-09T09:29:25.823Z,6.83
2019-03-09T09:32:00.515Z,7.87
2019-03-09T09:44:23.801Z,6.55
2019-03-09T10:03:22.242Z,7.10
2019-03-09T10:08:54.251Z,7.60
2019-03-09T10:11:31.919Z,7.45
2019-03-09T10:30:26.294Z,7.72
2019-03-09T10:32:57.711Z,8.18
2019-03-09T10:35:28.098Z,7.70
2019-03-09T10:37:58.655Z,8.70
2019-03-09T10:40:39.900Z,8.23
2019-03-09T10:43:10.810Z,8.08
2019-03-09T12:37:31.999Z,9.40
2019-03-09T12:40:02.618Z,9.75
2019-03-09T12:42:33.270Z,9.45
2019-03-09T12:45:03.953Z,9.73
2019-03-09T12:47:35.892Z,9.35
2019-03-09T12:50:11.414Z,9.50
2019-03-09T12:52:42.789Z,9.50
2019-03-09T12:55:17.804Z,9.58
2019-03-09T12:57:48.456Z,9.75
2019-03-09T13:00:22.357Z,9.13
2019-03-09T13:02:52.920Z,9.30
2019-03-09T13:05:23.302Z,10.03
2019-03-09T13:07:53.988Z,10.10
2019-03-09T13:10:24.541Z,9.83
2019-03-09T13:12:55.150Z,11.22
2019-03-09T13:15:29.009Z,11.08
2019-03-09T13:17:59.099Z,10.63
2019-03-09T13:20:30.083Z,10.08
2019-03-09T13:23:00.579Z,10.35
2019-03-09T13:25:31.143Z,10.28
2019-03-09T13:28:01.742Z,9.35
2019-03-09T13:30:32.522Z,9.18
2019-03-09T13:33:04.014Z,9.98
2019-03-09T13:35:34.708Z,8.70
2019-03-09T13:38:06.018Z,9.25
2019-03-09T13:40:36.850Z,8.90
2019-03-09T13:43:07.515Z,8.83
2019-03-09T13:45:38.222Z,9.10
2019-03-09T13:48:08.798Z,9.45
2019-03-09T13:50:39.279Z,8.50
2019-03-09T13:53:09.763Z,9.30
2019-03-09T13:55:42.197Z,8.93
2019-03-09T13:58:22.504Z,8.93
2019-03-09T14:00:55.754Z,9.50
2019-03-09T14:03:26.759Z,9.38
2019-03-09T14:20:48.894Z,8.95
2019-03-09T14:23:19.836Z,9.40
2019-03-09T14:25:51.309Z,9.50
2019-03-09T14:28:23.776Z,10.03
2019-03-09T14:30:54.495Z,8.95
2019-03-09T14:33:24.962Z,9.70
2019-03-09T14:35:55.627Z,10.03
2019-03-09T14:38:28.503Z,9.75
2019-03-09T14:40:59.531Z,9.78
2019-03-09T14:43:30.288Z,9.75
2019-03-09T14:46:00.899Z,9.83
2019-03-09T14:48:33.711Z,9.35
2019-03-09T14:51:08.209Z,9.05
2019-03-09T14:53:41.272Z,10.30
2019-03-09T14:56:13.749Z,9.70
2019-03-09T14:58:47.965Z,10.13
2019-03-09T15:01:19.585Z,10.07
2019-03-09T15:03:50.919Z,9.65
2019-03-09T15:06:22.633Z,9.43
2019-03-09T15:12:07.195Z,10.03
2019-03-09T15:14:37.848Z,9.83
2019-03-09T15:17:08.590Z,9.70
2019-03-09T15:20:04.045Z,9.13
2019-03-09T15:22:36.116Z,9.35
2019-03-09T15:25:10.788Z,9.23
2019-03-09T15:27:42.386Z,9.65
2019-03-09T15:30:26.208Z,8.98
2019-03-09T15:32:56.912Z,9.00
2019-03-09T15:38:21.145Z,9.05
2019-03-09T15:43:43.469Z,9.23
2019-03-09T15:55:00.322Z,9.20
2019-03-09T16:00:29.278Z,9.33
2019-03-09T16:03:00.180Z,9.20
2019-03-09T16:05:55.376Z,9.45
2019-03-09T16:08:26.999Z,8.95
2019-03-09T16:10:58.094Z,8.95
2019-03-09T16:13:28.767Z,8.40
2019-03-09T16:16:00.359Z,8.88
2019-03-09T16:18:33.098Z,8.38
2019-03-09T16:21:04.446Z,9.30
2019-03-09T16:23:39.826Z,8.43
2019-03-09T16:29:03.917Z,8.78
2019-03-09T16:34:37.728Z,8.93
2019-03-09T16:40:00.338Z,9.33
2019-03-09T16:42:31.119Z,10.03
2019-03-09T16:47:59.860Z,9.53
2019-03-09T16:50:30.466Z,9.70
2019-03-09T16:53:01.080Z,9.25
2019-03-09T16:55:31.797Z,9.88
2019-03-09T16:58:10.431Z,11.43
2019-03-09T17:00:41.286Z,12.25
2019-03-09T17:03:12.164Z,14.58
2019-03-09T17:05:57.262Z,13.98
2019-03-09T17:08:30.755Z,11.30
2019-03-09T17:11:02.553Z,9.88
2019-03-09T17:13:35.419Z,10.55
2019-03-09T17:16:07.496Z,11.18
2019-03-09T17:18:42.208Z,11.08
2019-03-09T17:21:15.379Z,10.53
2019-03-09T17:26:41.186Z,11.68
2019-03-09T17:29:11.911Z,10.88
2019-03-09T17:31:44.413Z,11.70
2019-03-09T17:34:19.010Z,11.12
2019-03-09T17:36:49.792Z,11.20
2019-03-09T17:39:22.065Z,10.93
2019-03-09T17:41:52.753Z,10.40
2019-03-09T17:44:23.349Z,9.93
2019-03-09T17:46:55.215Z,9.60
2019-03-09T17:52:27.227Z,10.25
2019-03-09T17:57:51.141Z,9.25
2019-03-09T18:03:23.134Z,9.50
2019-03-09T18:05:53.818Z,9.48
2019-03-09T18:08:26.251Z,9.45
2019-03-09T18:13:55.746Z,8.90
2019-03-09T18:19:24.779Z,9.83
2019-03-09T18:22:00.239Z,8.85
2019-03-09T18:24:31.234Z,8.65
2019-03-09T18:27:02.103Z,9.45
2019-03-09T18:29:32.784Z,8.68
2019-03-09T18:32:03.692Z,8.40
2019-03-09T18:37:23.401Z,9.00
2019-03-09T18:39:56.023Z,9.13
2019-03-09T18:42:26.690Z,8.40
2019-03-09T18:44:57.442Z,8.78
2019-03-09T18:47:28.046Z,8.83
2019-03-09T18:49:58.915Z,8.55
2019-03-09T18:52:29.876Z,8.85
2019-03-09T18:55:00.577Z,8.63
2019-03-09T18:57:31.242Z,8.73
2019-03-09T19:00:02.045Z,8.48
2019-03-09T19:02:33.806Z,8.53
2019-03-09T19:05:06.775Z,8.83
2019-03-09T19:07:37.499Z,8.55
2019-03-09T19:10:22.221Z,9.23
2019-03-09T19:12:52.911Z,8.70
2019-03-09T19:15:23.624Z,8.50
2019-03-09T19:17:54.918Z,8.73
2019-03-09T19:20:25.554Z,8.13
2019-03-09T19:22:57.069Z,7.92
2019-03-09T19:25:29.296Z,8.68
2019-03-09T19:28:00.203Z,8.83
2019-03-09T19:30:32.393Z,8.55
2019-03-09T19:33:05.351Z,8.63
2019-03-09T19:35:39.042Z,8.78
2019-03-09T19:38:09.835Z,8.95
2019-03-09T19:40:40.530Z,9.23
2019-03-09T19:43:11.496Z,9.00
2019-03-09T19:45:42.039Z,9.05
2019-03-09T19:48:12.686Z,8.80
2019-03-09T19:50:43.395Z,9.30
2019-03-09T19:53:14.711Z,8.68
2019-03-09T19:55:47.675Z,8.65
2019-03-09T19:58:18.604Z,8.83
2019-03-09T20:00:49.938Z,8.90
2019-03-09T20:03:20.733Z,8.38
2019-03-09T20:05:51.461Z,8.98
2019-03-09T20:08:31.650Z,9.08
2019-03-09T20:13:52.124Z,9.30
2019-03-09T20:16:22.980Z,9.33
2019-03-09T20:18:54.334Z,9.20
2019-03-09T20:21:25.082Z,8.20
2019-03-09T20:23:56.385Z,9.28
2019-03-09T20:26:27.047Z,9.03
2019-03-09T20:28:57.772Z,9.30
2019-03-09T20:31:28.831Z,9.45
2019-03-09T20:33:59.641Z,10.05
2019-03-09T20:36:30.359Z,9.65
2019-03-09T20:39:01.243Z,9.50
2019-03-09T20:41:31.900Z,8.98
2019-03-09T20:44:03.188Z,9.13
2019-03-09T20:46:41.658Z,9.18
2019-03-09T20:49:06.350Z,9.53
2019-03-09T20:51:37.512Z,9.68
2019-03-09T20:54:08.610Z,9.13
2019-03-09T20:56:39.090Z,9.38
2019-03-09T20:59:09.791Z,9.45
2019-03-09T21:01:40.509Z,10.20
2019-03-09T21:04:11.287Z,9.73
2019-03-09T21:06:42.018Z,9.95
2019-03-09T21:09:12.874Z,9.38
2019-03-09T21:11:44.550Z,9.30
2019-03-09T21:14:16.081Z,10.20
2019-03-09T21:16:47.866Z,10.08
2019-03-09T21:19:18.558Z,10.23
2019-03-09T21:21:51.361Z,9.83
2019-03-09T21:24:22.010Z,9.88
2019-03-09T21:26:53.123Z,9.88
2019-03-09T21:29:23.877Z,10.18
2019-03-09T21:31:54.552Z,10.23
2019-03-09T21:34:25.949Z,10.38
2019-03-09T21:36:57.062Z,9.78
2019-03-09T21:39:28.725Z,9.95
2019-03-09T21:41:59.595Z,10.50
2019-03-09T21:44:31.634Z,10.63
2019-03-09T21:47:02.257Z,9.83
2019-03-09T21:49:33.053Z,10.38
2019-03-09T21:52:03.718Z,10.38
2019-03-09T21:54:34.503Z,10.58
2019-03-09T21:57:06.032Z,10.88
2019-03-09T21:59:36.858Z,10.53
2019-03-09T22:02:07.686Z,10.95
2019-03-09T22:04:38.514Z,10.03
2019-03-09T22:07:09.117Z,10.00
2019-03-09T22:09:39.854Z,10.38
2019-03-09T22:12:10.732Z,10.53
2019-03-09T22:14:41.379Z,10.80
2019-03-09T22:17:13.281Z,10.65
2019-03-09T22:19:49.641Z,10.80
2019-03-09T22:22:22.069Z,10.30
2019-03-09T22:24:52.740Z,10.68
2019-03-09T22:27:23.854Z,10.18
2019-03-09T22:29:54.806Z,11.15
2019-03-09T22:32:25.527Z,10.82
2019-03-09T22:34:56.281Z,10.55
2019-03-09T22:37:45.590Z,11.15
2019-03-09T22:40:17.548Z,10.60
2019-03-09T22:42:48.480Z,10.58
2019-03-09T22:45:19.471Z,11.05
2019-03-09T22:48:02.801Z,11.43
2019-03-09T22:50:45.514Z,10.78
2019-03-09T22:53:21.893Z,11.40
2019-03-09T22:55:53.162Z,10.82
2019-03-09T22:58:24.218Z,12.05
2019-03-09T23:00:58.135Z,10.98
2019-03-09T23:03:29.090Z,11.05
2019-03-09T23:05:59.679Z,11.50
2019-03-09T23:08:30.382Z,11.38
2019-03-09T23:11:12.324Z,12.78
2019-03-09T23:14:03.177Z,11.35
2019-03-09T23:16:34.638Z,11.45
2019-03-09T23:21:54.483Z,11.48
2019-03-09T23:24:25.764Z,11.45
2019-03-09T23:26:56.911Z,11.00
2019-03-09T23:29:29.532Z,11.30
2019-03-09T23:32:00.301Z,11.45
2019-03-09T23:34:31.479Z,11.12
2019-03-09T23:37:02.534Z,10.45
2019-03-09T23:39:35.352Z,11.22
2019-03-09T23:42:06.382Z,11.20
2019-03-09T23:44:37.097Z,11.53
2019-03-09T23:47:11.705Z,11.73
2019-03-09T23:49:42.555Z,11.30
2019-03-09T23:52:14.432Z,11.85
2019-03-09T23:54:45.111Z,12.05
2019-03-09T23:57:15.842Z,12.50
2019-03-09T23:59:46.590Z,11.28
